Terminal Aerodrome Forecast
Issued by NWS Louisville, KY

Home | Current Version | Previous Version | Text Only | Print | Product List | Glossary On
Versions: 1 2 3 4 5 6 7 8 9 10 11 12 13 14 15 16 17 18 19 20
000
FTUS43 KLMK 261100
TAFLEX
TAF
KLEX 261131Z 2612/2712 17004KT P6SM BKN050
     FM261500 20012KT P6SM SCT040 SCT250
     FM261800 20016G23KT P6SM VCTS BKN045CB
      TEMPO 2620/2623 4SM -TSRA BKN025CB
     FM270000 20012KT P6SM BKN050
     FM270700 20008KT P6SM BKN025=

USA.gov is the U.S. government's official web portal to all federal, state and local government web resources and services.